sensor_id;sensor_type;location;lat;lon;timestamp;P1;durP1;ratioP1;P2;durP2;ratioP2
8044;SDS011;4065;48.754;9.982;2023-12-14T00:03:01;14.95;;;11.65;;
8044;SDS011;4065;48.754;9.982;2023-12-14T00:06:24;7.30;;;6.60;;
8044;SDS011;4065;48.754;9.982;2023-12-14T00:09:46;8.02;;;7.22;;
8044;SDS011;4065;48.754;9.982;2023-12-14T00:13:08;7.40;;;6.70;;
8044;SDS011;4065;48.754;9.982;2023-12-14T00:16:30;6.00;;;4.82;;
8044;SDS011;4065;48.754;9.982;2023-12-14T00:19:52;4.40;;;4.10;;
8044;SDS011;4065;48.754;9.982;2023-12-14T00:23:15;4.05;;;3.65;;
8044;SDS011;4065;48.754;9.982;2023-12-14T00:26:37;4.20;;;3.90;;
8044;SDS011;4065;48.754;9.982;2023-12-14T00:29:59;5.43;;;4.18;;
8044;SDS011;4065;48.754;9.982;2023-12-14T00:33:21;5.05;;;4.53;;
8044;SDS011;4065;48.754;9.982;2023-12-14T00:36:43;3.28;;;3.05;;
8044;SDS011;4065;48.754;9.982;2023-12-14T00:40:07;2.92;;;2.72;;
8044;SDS011;4065;48.754;9.982;2023-12-14T00:43:29;3.15;;;2.95;;
8044;SDS011;4065;48.754;9.982;2023-12-14T00:46:51;2.70;;;2.50;;
8044;SDS011;4065;48.754;9.982;2023-12-14T00:50:13;3.13;;;2.92;;
8044;SDS011;4065;48.754;9.982;2023-12-14T00:53:35;3.20;;;3.00;;
8044;SDS011;4065;48.754;9.982;2023-12-14T00:56:58;2.90;;;2.70;;
8044;SDS011;4065;48.754;9.982;2023-12-14T01:00:20;2.97;;;2.78;;
8044;SDS011;4065;48.754;9.982;2023-12-14T01:03:42;3.55;;;3.25;;
8044;SDS011;4065;48.754;9.982;2023-12-14T01:07:04;4.28;;;3.97;;
8044;SDS011;4065;48.754;9.982;2023-12-14T01:10:26;5.78;;;5.28;;
8044;SDS011;4065;48.754;9.982;2023-12-14T01:13:49;6.00;;;5.22;;
8044;SDS011;4065;48.754;9.982;2023-12-14T01:17:11;6.05;;;5.55;;
8044;SDS011;4065;48.754;9.982;2023-12-14T01:20:33;6.13;;;5.53;;
8044;SDS011;4065;48.754;9.982;2023-12-14T01:23:55;6.18;;;5.65;;
8044;SDS011;4065;48.754;9.982;2023-12-14T01:27:17;8.20;;;5.85;;
8044;SDS011;4065;48.754;9.982;2023-12-14T01:30:40;7.65;;;5.50;;
8044;SDS011;4065;48.754;9.982;2023-12-14T01:34:02;6.32;;;5.80;;
8044;SDS011;4065;48.754;9.982;2023-12-14T01:37:24;6.90;;;6.28;;
8044;SDS011;4065;48.754;9.982;2023-12-14T01:40:45;6.22;;;5.70;;
8044;SDS011;4065;48.754;9.982;2023-12-14T01:44:07;6.65;;;6.05;;
8044;SDS011;4065;48.754;9.982;2023-12-14T01:47:31;7.78;;;7.00;;
8044;SDS011;4065;48.754;9.982;2023-12-14T01:50:52;7.60;;;6.80;;
8044;SDS011;4065;48.754;9.982;2023-12-14T01:54:14;10.25;;;7.25;;
8044;SDS011;4065;48.754;9.982;2023-12-14T01:57:36;7.50;;;6.80;;
8044;SDS011;4065;48.754;9.982;2023-12-14T02:01:00;8.27;;;7.50;;
8044;SDS011;4065;48.754;9.982;2023-12-14T02:04:27;12.77;;;8.20;;
8044;SDS011;4065;48.754;9.982;2023-12-14T02:07:49;14.00;;;7.97;;
8044;SDS011;4065;48.754;9.982;2023-12-14T02:11:11;10.23;;;9.13;;
8044;SDS011;4065;48.754;9.982;2023-12-14T02:14:33;7.30;;;6.55;;
8044;SDS011;4065;48.754;9.982;2023-12-14T02:17:55;9.18;;;7.40;;
8044;SDS011;4065;48.754;9.982;2023-12-14T02:21:18;7.85;;;7.03;;
8044;SDS011;4065;48.754;9.982;2023-12-14T02:24:42;8.60;;;7.03;;
8044;SDS011;4065;48.754;9.982;2023-12-14T02:28:04;7.93;;;6.07;;
8044;SDS011;4065;48.754;9.982;2023-12-14T02:31:26;8.85;;;7.68;;
8044;SDS011;4065;48.754;9.982;2023-12-14T02:34:47;12.20;;;7.90;;
8044;SDS011;4065;48.754;9.982;2023-12-14T02:38:09;7.97;;;6.70;;
8044;SDS011;4065;48.754;9.982;2023-12-14T02:41:33;11.73;;;8.27;;
8044;SDS011;4065;48.754;9.982;2023-12-14T02:44:55;14.43;;;8.57;;
8044;SDS011;4065;48.754;9.982;2023-12-14T02:48:17;34.85;;;16.17;;
8044;SDS011;4065;48.754;9.982;2023-12-14T02:51:39;8.43;;;6.95;;
8044;SDS011;4065;48.754;9.982;2023-12-14T02:55:01;15.95;;;8.90;;
8044;SDS011;4065;48.754;9.982;2023-12-14T02:58:24;26.85;;;14.95;;
8044;SDS011;4065;48.754;9.982;2023-12-14T03:01:46;20.42;;;12.68;;
8044;SDS011;4065;48.754;9.982;2023-12-14T03:05:08;25.77;;;15.45;;
8044;SDS011;4065;48.754;9.982;2023-12-14T03:08:30;13.18;;;9.80;;
8044;SDS011;4065;48.754;9.982;2023-12-14T03:11:52;16.85;;;10.60;;
8044;SDS011;4065;48.754;9.982;2023-12-14T03:15:16;14.02;;;8.48;;
8044;SDS011;4065;48.754;9.982;2023-12-14T03:18:39;14.75;;;9.80;;
8044;SDS011;4065;48.754;9.982;2023-12-14T03:22:01;14.50;;;9.35;;
8044;SDS011;4065;48.754;9.982;2023-12-14T03:25:23;18.95;;;12.18;;
8044;SDS011;4065;48.754;9.982;2023-12-14T03:28:45;18.05;;;11.38;;
8044;SDS011;4065;48.754;9.982;2023-12-14T03:32:11;8.30;;;7.50;;
8044;SDS011;4065;48.754;9.982;2023-12-14T03:35:33;12.82;;;9.25;;
8044;SDS011;4065;48.754;9.982;2023-12-14T03:38:56;7.70;;;6.30;;
8044;SDS011;4065;48.754;9.982;2023-12-14T03:42:18;6.30;;;5.70;;
8044;SDS011;4065;48.754;9.982;2023-12-14T03:45:40;11.13;;;7.07;;
8044;SDS011;4065;48.754;9.982;2023-12-14T03:49:03;6.00;;;5.00;;
8044;SDS011;4065;48.754;9.982;2023-12-14T03:52:25;5.50;;;4.80;;
8044;SDS011;4065;48.754;9.982;2023-12-14T03:55:48;9.85;;;5.30;;
8044;SDS011;4065;48.754;9.982;2023-12-14T03:59:10;10.50;;;5.60;;
8044;SDS011;4065;48.754;9.982;2023-12-14T04:02:32;5.95;;;5.22;;
8044;SDS011;4065;48.754;9.982;2023-12-14T04:05:55;7.85;;;6.93;;
8044;SDS011;4065;48.754;9.982;2023-12-14T04:09:17;7.68;;;6.60;;
8044;SDS011;4065;48.754;9.982;2023-12-14T04:12:39;6.78;;;6.03;;
8044;SDS011;4065;48.754;9.982;2023-12-14T04:16:01;8.13;;;6.35;;
8044;SDS011;4065;48.754;9.982;2023-12-14T04:19:24;8.63;;;6.72;;
8044;SDS011;4065;48.754;9.982;2023-12-14T04:22:47;7.13;;;6.43;;
8044;SDS011;4065;48.754;9.982;2023-12-14T04:26:09;7.50;;;5.85;;
8044;SDS011;4065;48.754;9.982;2023-12-14T04:29:31;7.63;;;6.45;;
8044;SDS011;4065;48.754;9.982;2023-12-14T04:32:53;8.00;;;6.57;;
8044;SDS011;4065;48.754;9.982;2023-12-14T04:36:15;7.93;;;7.10;;
8044;SDS011;4065;48.754;9.982;2023-12-14T04:39:38;10.77;;;8.13;;
8044;SDS011;4065;48.754;9.982;2023-12-14T04:43:00;8.15;;;7.30;;
8044;SDS011;4065;48.754;9.982;2023-12-14T04:46:23;8.35;;;6.60;;
8044;SDS011;4065;48.754;9.982;2023-12-14T04:49:45;5.65;;;5.15;;
8044;SDS011;4065;48.754;9.982;2023-12-14T04:53:06;5.28;;;4.78;;
8044;SDS011;4065;48.754;9.982;2023-12-14T04:56:30;6.22;;;5.07;;
8044;SDS011;4065;48.754;9.982;2023-12-14T04:59:52;7.78;;;5.43;;
8044;SDS011;4065;48.754;9.982;2023-12-14T05:03:14;7.25;;;6.35;;
8044;SDS011;4065;48.754;9.982;2023-12-14T05:06:35;6.60;;;6.00;;
8044;SDS011;4065;48.754;9.982;2023-12-14T05:09:57;8.45;;;7.28;;
8044;SDS011;4065;48.754;9.982;2023-12-14T05:13:21;6.55;;;5.95;;
8044;SDS011;4065;48.754;9.982;2023-12-14T05:16:43;9.95;;;6.80;;
8044;SDS011;4065;48.754;9.982;2023-12-14T05:20:07;7.88;;;7.07;;
8044;SDS011;4065;48.754;9.982;2023-12-14T05:23:30;7.60;;;6.38;;
8044;SDS011;4065;48.754;9.982;2023-12-14T05:26:52;8.00;;;6.72;;
8044;SDS011;4065;48.754;9.982;2023-12-14T05:30:15;9.40;;;7.10;;
8044;SDS011;4065;48.754;9.982;2023-12-14T05:33:37;8.10;;;7.30;;
8044;SDS011;4065;48.754;9.982;2023-12-14T05:36:59;9.35;;;7.38;;
8044;SDS011;4065;48.754;9.982;2023-12-14T05:40:21;9.18;;;8.25;;
8044;SDS011;4065;48.754;9.982;2023-12-14T05:43:43;12.50;;;9.90;;
8044;SDS011;4065;48.754;9.982;2023-12-14T05:47:06;14.93;;;11.82;;
8044;SDS011;4065;48.754;9.982;2023-12-14T05:50:28;53.40;;;26.95;;
8044;SDS011;4065;48.754;9.982;2023-12-14T05:53:50;75.25;;;34.67;;
8044;SDS011;4065;48.754;9.982;2023-12-14T05:57:12;54.33;;;27.50;;
8044;SDS011;4065;48.754;9.982;2023-12-14T06:00:34;25.00;;;14.20;;
8044;SDS011;4065;48.754;9.982;2023-12-14T06:03:58;20.35;;;12.75;;
8044;SDS011;4065;48.754;9.982;2023-12-14T06:07:20;16.63;;;11.02;;
8044;SDS011;4065;48.754;9.982;2023-12-14T06:10:42;16.05;;;11.13;;
8044;SDS011;4065;48.754;9.982;2023-12-14T06:14:03;19.33;;;13.65;;
8044;SDS011;4065;48.754;9.982;2023-12-14T06:17:25;19.17;;;12.05;;
8044;SDS011;4065;48.754;9.982;2023-12-14T06:20:49;20.13;;;11.40;;
8044;SDS011;4065;48.754;9.982;2023-12-14T06:24:11;16.48;;;10.63;;
8044;SDS011;4065;48.754;9.982;2023-12-14T06:27:32;10.30;;;8.82;;
8044;SDS011;4065;48.754;9.982;2023-12-14T06:30:54;6.88;;;6.28;;
8044;SDS011;4065;48.754;9.982;2023-12-14T06:34:16;10.40;;;7.05;;
8044;SDS011;4065;48.754;9.982;2023-12-14T06:37:40;7.22;;;6.53;;
8044;SDS011;4065;48.754;9.982;2023-12-14T06:41:02;9.75;;;7.13;;
8044;SDS011;4065;48.754;9.982;2023-12-14T06:44:24;9.27;;;7.60;;
8044;SDS011;4065;48.754;9.982;2023-12-14T06:47:46;10.93;;;8.45;;
8044;SDS011;4065;48.754;9.982;2023-12-14T06:51:09;10.50;;;8.82;;
8044;SDS011;4065;48.754;9.982;2023-12-14T06:54:32;11.55;;;8.70;;
8044;SDS011;4065;48.754;9.982;2023-12-14T06:57:54;12.32;;;9.45;;
8044;SDS011;4065;48.754;9.982;2023-12-14T07:01:16;12.50;;;9.80;;
8044;SDS011;4065;48.754;9.982;2023-12-14T07:04:39;12.93;;;10.20;;
8044;SDS011;4065;48.754;9.982;2023-12-14T07:08:01;12.80;;;9.70;;
8044;SDS011;4065;48.754;9.982;2023-12-14T07:11:24;14.27;;;10.80;;
8044;SDS011;4065;48.754;9.982;2023-12-14T07:14:46;13.60;;;9.63;;
8044;SDS011;4065;48.754;9.982;2023-12-14T07:18:08;16.02;;;10.60;;
8044;SDS011;4065;48.754;9.982;2023-12-14T07:21:30;12.57;;;11.10;;
8044;SDS011;4065;48.754;9.982;2023-12-14T07:24:51;16.65;;;10.63;;
8044;SDS011;4065;48.754;9.982;2023-12-14T07:28:15;12.73;;;9.75;;
8044;SDS011;4065;48.754;9.982;2023-12-14T07:31:36;13.23;;;8.55;;
8044;SDS011;4065;48.754;9.982;2023-12-14T07:34:58;14.27;;;10.52;;
8044;SDS011;4065;48.754;9.982;2023-12-14T07:38:22;14.88;;;10.90;;
8044;SDS011;4065;48.754;9.982;2023-12-14T07:41:44;13.82;;;10.10;;
8044;SDS011;4065;48.754;9.982;2023-12-14T07:45:08;16.80;;;13.35;;
8044;SDS011;4065;48.754;9.982;2023-12-14T07:48:33;18.98;;;12.90;;
8044;SDS011;4065;48.754;9.982;2023-12-14T07:51:55;16.27;;;11.30;;
8044;SDS011;4065;48.754;9.982;2023-12-14T07:55:17;20.13;;;17.88;;
8044;SDS011;4065;48.754;9.982;2023-12-14T07:58:39;16.02;;;13.70;;
8044;SDS011;4065;48.754;9.982;2023-12-14T08:02:02;19.75;;;14.80;;
8044;SDS011;4065;48.754;9.982;2023-12-14T08:05:24;34.15;;;27.17;;
8044;SDS011;4065;48.754;9.982;2023-12-14T08:08:46;35.25;;;31.38;;
8044;SDS011;4065;48.754;9.982;2023-12-14T08:12:08;21.75;;;15.73;;
8044;SDS011;4065;48.754;9.982;2023-12-14T08:15:30;20.13;;;14.63;;
8044;SDS011;4065;48.754;9.982;2023-12-14T08:18:53;26.13;;;18.05;;
8044;SDS011;4065;48.754;9.982;2023-12-14T08:22:15;19.65;;;14.20;;
8044;SDS011;4065;48.754;9.982;2023-12-14T08:25:37;20.20;;;14.75;;
8044;SDS011;4065;48.754;9.982;2023-12-14T08:29:00;23.13;;;17.05;;
8044;SDS011;4065;48.754;9.982;2023-12-14T08:32:34;20.67;;;16.05;;
8044;SDS011;4065;48.754;9.982;2023-12-14T08:35:58;17.10;;;14.32;;
8044;SDS011;4065;48.754;9.982;2023-12-14T08:39:20;22.60;;;16.52;;
8044;SDS011;4065;48.754;9.982;2023-12-14T08:42:41;20.58;;;13.55;;
8044;SDS011;4065;48.754;9.982;2023-12-14T08:46:03;17.90;;;12.18;;
8044;SDS011;4065;48.754;9.982;2023-12-14T08:49:27;21.35;;;14.98;;
8044;SDS011;4065;48.754;9.982;2023-12-14T08:52:50;14.90;;;11.60;;
8044;SDS011;4065;48.754;9.982;2023-12-14T08:56:12;17.60;;;10.88;;
8044;SDS011;4065;48.754;9.982;2023-12-14T08:59:35;12.77;;;11.02;;
8044;SDS011;4065;48.754;9.982;2023-12-14T09:02:56;15.85;;;12.70;;
8044;SDS011;4065;48.754;9.982;2023-12-14T09:06:18;16.60;;;11.70;;
8044;SDS011;4065;48.754;9.982;2023-12-14T09:09:42;15.13;;;11.05;;
8044;SDS011;4065;48.754;9.982;2023-12-14T09:13:06;13.48;;;10.73;;
8044;SDS011;4065;48.754;9.982;2023-12-14T09:16:30;11.68;;;10.13;;
8044;SDS011;4065;48.754;9.982;2023-12-14T09:19:52;14.05;;;10.27;;
8044;SDS011;4065;48.754;9.982;2023-12-14T09:23:14;11.75;;;10.43;;
8044;SDS011;4065;48.754;9.982;2023-12-14T09:26:37;12.45;;;9.95;;
8044;SDS011;4065;48.754;9.982;2023-12-14T09:30:01;16.02;;;10.52;;
8044;SDS011;4065;48.754;9.982;2023-12-14T09:33:23;12.50;;;9.98;;
8044;SDS011;4065;48.754;9.982;2023-12-14T09:36:44;11.90;;;8.90;;
8044;SDS011;4065;48.754;9.982;2023-12-14T09:40:07;39.95;;;25.98;;
8044;SDS011;4065;48.754;9.982;2023-12-14T09:43:32;18.83;;;13.63;;
8044;SDS011;4065;48.754;9.982;2023-12-14T09:46:55;30.90;;;21.48;;
8044;SDS011;4065;48.754;9.982;2023-12-14T09:50:17;14.13;;;10.13;;
8044;SDS011;4065;48.754;9.982;2023-12-14T09:53:39;12.25;;;10.27;;
8044;SDS011;4065;48.754;9.982;2023-12-14T09:57:01;13.50;;;10.75;;
8044;SDS011;4065;48.754;9.982;2023-12-14T10:00:35;11.10;;;9.40;;
8044;SDS011;4065;48.754;9.982;2023-12-14T10:04:09;15.13;;;12.63;;
8044;SDS011;4065;48.754;9.982;2023-12-14T10:07:31;17.85;;;12.27;;
8044;SDS011;4065;48.754;9.982;2023-12-14T10:10:53;14.25;;;11.65;;
8044;SDS011;4065;48.754;9.982;2023-12-14T10:14:20;16.60;;;12.40;;
8044;SDS011;4065;48.754;9.982;2023-12-14T10:17:44;21.52;;;14.80;;
8044;SDS011;4065;48.754;9.982;2023-12-14T10:21:13;14.05;;;12.05;;
8044;SDS011;4065;48.754;9.982;2023-12-14T10:24:35;17.35;;;13.10;;
8044;SDS011;4065;48.754;9.982;2023-12-14T10:27:57;16.17;;;12.90;;
8044;SDS011;4065;48.754;9.982;2023-12-14T10:31:20;14.18;;;11.20;;
8044;SDS011;4065;48.754;9.982;2023-12-14T10:34:44;16.23;;;11.18;;
8044;SDS011;4065;48.754;9.982;2023-12-14T10:38:06;15.15;;;11.77;;
8044;SDS011;4065;48.754;9.982;2023-12-14T10:41:30;17.45;;;12.00;;
8044;SDS011;4065;48.754;9.982;2023-12-14T10:44:53;17.05;;;11.48;;
8044;SDS011;4065;48.754;9.982;2023-12-14T10:48:15;15.90;;;12.02;;
8044;SDS011;4065;48.754;9.982;2023-12-14T10:51:42;14.80;;;10.43;;
8044;SDS011;4065;48.754;9.982;2023-12-14T10:55:04;49.35;;;32.30;;
8044;SDS011;4065;48.754;9.982;2023-12-14T10:58:34;30.20;;;23.85;;
8044;SDS011;4065;48.754;9.982;2023-12-14T11:02:07;13.93;;;11.88;;
8044;SDS011;4065;48.754;9.982;2023-12-14T11:05:32;14.65;;;9.73;;
8044;SDS011;4065;48.754;9.982;2023-12-14T11:08:57;14.07;;;10.25;;
8044;SDS011;4065;48.754;9.982;2023-12-14T11:12:20;10.55;;;8.40;;
8044;SDS011;4065;48.754;9.982;2023-12-14T11:15:47;9.60;;;8.63;;
8044;SDS011;4065;48.754;9.982;2023-12-14T11:19:23;13.25;;;10.27;;
8044;SDS011;4065;48.754;9.982;2023-12-14T11:22:48;15.27;;;12.75;;
8044;SDS011;4065;48.754;9.982;2023-12-14T11:26:14;20.88;;;14.00;;
8044;SDS011;4065;48.754;9.982;2023-12-14T11:29:42;14.23;;;11.70;;
8044;SDS011;4065;48.754;9.982;2023-12-14T11:33:04;14.52;;;12.95;;
8044;SDS011;4065;48.754;9.982;2023-12-14T11:36:29;12.50;;;10.20;;
8044;SDS011;4065;48.754;9.982;2023-12-14T11:39:53;11.75;;;10.13;;
8044;SDS011;4065;48.754;9.982;2023-12-14T11:43:19;10.70;;;9.60;;
8044;SDS011;4065;48.754;9.982;2023-12-14T11:46:48;13.93;;;11.45;;
8044;SDS011;4065;48.754;9.982;2023-12-14T11:50:15;9.82;;;8.27;;
8044;SDS011;4065;48.754;9.982;2023-12-14T11:53:37;10.05;;;7.38;;
8044;SDS011;4065;48.754;9.982;2023-12-14T11:57:01;10.00;;;6.85;;
8044;SDS011;4065;48.754;9.982;2023-12-14T12:00:26;8.82;;;6.72;;
8044;SDS011;4065;48.754;9.982;2023-12-14T12:03:49;9.60;;;7.38;;
8044;SDS011;4065;48.754;9.982;2023-12-14T12:07:11;10.40;;;7.20;;
8044;SDS011;4065;48.754;9.982;2023-12-14T12:10:33;20.27;;;16.23;;
8044;SDS011;4065;48.754;9.982;2023-12-14T12:13:56;13.48;;;9.57;;
8044;SDS011;4065;48.754;9.982;2023-12-14T12:17:21;10.00;;;8.43;;
8044;SDS011;4065;48.754;9.982;2023-12-14T12:20:43;12.32;;;9.73;;
8044;SDS011;4065;48.754;9.982;2023-12-14T12:24:05;13.30;;;8.85;;
8044;SDS011;4065;48.754;9.982;2023-12-14T12:27:27;13.05;;;10.60;;
8044;SDS011;4065;48.754;9.982;2023-12-14T12:30:49;16.08;;;14.35;;
8044;SDS011;4065;48.754;9.982;2023-12-14T12:34:12;18.48;;;16.63;;
8044;SDS011;4065;48.754;9.982;2023-12-14T12:37:35;15.15;;;11.68;;
8044;SDS011;4065;48.754;9.982;2023-12-14T12:40:57;13.60;;;10.82;;
8044;SDS011;4065;48.754;9.982;2023-12-14T12:44:20;13.98;;;10.20;;
8044;SDS011;4065;48.754;9.982;2023-12-14T12:47:42;30.35;;;23.25;;
8044;SDS011;4065;48.754;9.982;2023-12-14T12:51:06;36.95;;;28.27;;
8044;SDS011;4065;48.754;9.982;2023-12-14T12:54:28;13.95;;;12.18;;
8044;SDS011;4065;48.754;9.982;2023-12-14T12:57:49;15.63;;;11.27;;
8044;SDS011;4065;48.754;9.982;2023-12-14T13:01:11;15.65;;;11.40;;
8044;SDS011;4065;48.754;9.982;2023-12-14T13:04:34;13.60;;;11.05;;
8044;SDS011;4065;48.754;9.982;2023-12-14T13:07:58;15.23;;;11.27;;
8044;SDS011;4065;48.754;9.982;2023-12-14T13:11:21;14.60;;;12.70;;
8044;SDS011;4065;48.754;9.982;2023-12-14T13:14:42;19.25;;;13.30;;
8044;SDS011;4065;48.754;9.982;2023-12-14T13:18:04;18.13;;;14.10;;
8044;SDS011;4065;48.754;9.982;2023-12-14T13:21:26;16.27;;;13.57;;
8044;SDS011;4065;48.754;9.982;2023-12-14T13:24:50;15.13;;;11.60;;
8044;SDS011;4065;48.754;9.982;2023-12-14T13:28:12;14.93;;;11.43;;
8044;SDS011;4065;48.754;9.982;2023-12-14T13:31:34;13.25;;;11.68;;
8044;SDS011;4065;48.754;9.982;2023-12-14T13:34:55;16.00;;;11.77;;
8044;SDS011;4065;48.754;9.982;2023-12-14T13:38:17;15.63;;;11.38;;
8044;SDS011;4065;48.754;9.982;2023-12-14T13:41:41;16.42;;;12.00;;
8044;SDS011;4065;48.754;9.982;2023-12-14T13:45:02;38.50;;;25.08;;
8044;SDS011;4065;48.754;9.982;2023-12-14T13:48:25;17.70;;;12.88;;
8044;SDS011;4065;48.754;9.982;2023-12-14T13:51:47;17.52;;;12.82;;
8044;SDS011;4065;48.754;9.982;2023-12-14T13:55:09;17.75;;;13.55;;
8044;SDS011;4065;48.754;9.982;2023-12-14T13:58:32;15.27;;;13.05;;
8044;SDS011;4065;48.754;9.982;2023-12-14T14:01:57;14.57;;;12.63;;
8044;SDS011;4065;48.754;9.982;2023-12-14T14:05:19;21.00;;;16.17;;
8044;SDS011;4065;48.754;9.982;2023-12-14T14:08:41;21.80;;;16.60;;
8044;SDS011;4065;48.754;9.982;2023-12-14T14:12:03;18.50;;;14.07;;
8044;SDS011;4065;48.754;9.982;2023-12-14T14:15:26;16.38;;;13.25;;
8044;SDS011;4065;48.754;9.982;2023-12-14T14:18:48;15.23;;;13.02;;
8044;SDS011;4065;48.754;9.982;2023-12-14T14:22:10;15.88;;;13.88;;
8044;SDS011;4065;48.754;9.982;2023-12-14T14:25:32;16.67;;;14.63;;
8044;SDS011;4065;48.754;9.982;2023-12-14T14:28:54;17.52;;;13.57;;
8044;SDS011;4065;48.754;9.982;2023-12-14T14:32:21;8.25;;;7.22;;
8044;SDS011;4065;48.754;9.982;2023-12-14T14:35:43;6.00;;;5.50;;
8044;SDS011;4065;48.754;9.982;2023-12-14T14:39:05;8.32;;;6.63;;
8044;SDS011;4065;48.754;9.982;2023-12-14T14:42:28;6.07;;;5.47;;
8044;SDS011;4065;48.754;9.982;2023-12-14T14:45:50;6.47;;;5.80;;
8044;SDS011;4065;48.754;9.982;2023-12-14T14:49:14;6.72;;;5.90;;
8044;SDS011;4065;48.754;9.982;2023-12-14T14:52:36;7.22;;;6.53;;
8044;SDS011;4065;48.754;9.982;2023-12-14T14:55:57;12.05;;;9.52;;
8044;SDS011;4065;48.754;9.982;2023-12-14T14:59:19;8.80;;;7.85;;
8044;SDS011;4065;48.754;9.982;2023-12-14T15:02:43;6.70;;;6.10;;
8044;SDS011;4065;48.754;9.982;2023-12-14T15:06:06;7.93;;;7.18;;
8044;SDS011;4065;48.754;9.982;2023-12-14T15:09:29;7.47;;;6.70;;
8044;SDS011;4065;48.754;9.982;2023-12-14T15:12:50;7.18;;;6.47;;
8044;SDS011;4065;48.754;9.982;2023-12-14T15:16:12;9.82;;;8.90;;
8044;SDS011;4065;48.754;9.982;2023-12-14T15:19:34;9.30;;;8.30;;
8044;SDS011;4065;48.754;9.982;2023-12-14T15:22:58;25.35;;;15.95;;
8044;SDS011;4065;48.754;9.982;2023-12-14T15:26:20;9.88;;;8.90;;
8044;SDS011;4065;48.754;9.982;2023-12-14T15:29:41;10.77;;;9.40;;
8044;SDS011;4065;48.754;9.982;2023-12-14T15:33:04;11.95;;;9.77;;
8044;SDS011;4065;48.754;9.982;2023-12-14T15:36:26;12.93;;;10.82;;
8044;SDS011;4065;48.754;9.982;2023-12-14T15:39:49;15.82;;;14.18;;
8044;SDS011;4065;48.754;9.982;2023-12-14T15:43:13;19.13;;;14.82;;
8044;SDS011;4065;48.754;9.982;2023-12-14T15:46:35;17.65;;;15.77;;
8044;SDS011;4065;48.754;9.982;2023-12-14T15:49:57;16.48;;;14.05;;
8044;SDS011;4065;48.754;9.982;2023-12-14T15:53:18;23.05;;;17.08;;
8044;SDS011;4065;48.754;9.982;2023-12-14T15:56:42;18.75;;;15.73;;
8044;SDS011;4065;48.754;9.982;2023-12-14T16:00:04;38.13;;;26.00;;
8044;SDS011;4065;48.754;9.982;2023-12-14T16:03:27;25.48;;;20.60;;
8044;SDS011;4065;48.754;9.982;2023-12-14T16:06:49;21.35;;;18.02;;
8044;SDS011;4065;48.754;9.982;2023-12-14T16:10:11;20.40;;;16.20;;
8044;SDS011;4065;48.754;9.982;2023-12-14T16:13:35;17.80;;;15.02;;
8044;SDS011;4065;48.754;9.982;2023-12-14T16:16:57;26.35;;;18.10;;
8044;SDS011;4065;48.754;9.982;2023-12-14T16:20:19;34.88;;;21.45;;
8044;SDS011;4065;48.754;9.982;2023-12-14T16:23:43;36.78;;;26.25;;
8044;SDS011;4065;48.754;9.982;2023-12-14T16:27:04;21.58;;;16.90;;
8044;SDS011;4065;48.754;9.982;2023-12-14T16:30:28;18.48;;;15.00;;
8044;SDS011;4065;48.754;9.982;2023-12-14T16:33:50;21.02;;;16.95;;
8044;SDS011;4065;48.754;9.982;2023-12-14T16:37:12;17.77;;;14.40;;
8044;SDS011;4065;48.754;9.982;2023-12-14T16:40:34;18.05;;;14.10;;
8044;SDS011;4065;48.754;9.982;2023-12-14T16:43:56;23.05;;;16.35;;
8044;SDS011;4065;48.754;9.982;2023-12-14T16:47:19;27.25;;;20.25;;
8044;SDS011;4065;48.754;9.982;2023-12-14T16:50:41;20.63;;;16.63;;
8044;SDS011;4065;48.754;9.982;2023-12-14T16:54:03;22.85;;;17.23;;
8044;SDS011;4065;48.754;9.982;2023-12-14T16:57:25;22.35;;;17.38;;
8044;SDS011;4065;48.754;9.982;2023-12-14T17:00:47;16.88;;;14.15;;
8044;SDS011;4065;48.754;9.982;2023-12-14T17:04:10;20.67;;;15.93;;
8044;SDS011;4065;48.754;9.982;2023-12-14T17:07:32;17.80;;;13.40;;
8044;SDS011;4065;48.754;9.982;2023-12-14T17:10:54;15.18;;;12.15;;
8044;SDS011;4065;48.754;9.982;2023-12-14T17:14:16;14.18;;;11.40;;
8044;SDS011;4065;48.754;9.982;2023-12-14T17:17:40;16.80;;;12.52;;
8044;SDS011;4065;48.754;9.982;2023-12-14T17:21:04;16.00;;;13.25;;
8044;SDS011;4065;48.754;9.982;2023-12-14T17:24:26;13.65;;;11.38;;
8044;SDS011;4065;48.754;9.982;2023-12-14T17:27:48;22.02;;;16.85;;
8044;SDS011;4065;48.754;9.982;2023-12-14T17:31:10;14.50;;;11.88;;
8044;SDS011;4065;48.754;9.982;2023-12-14T17:34:32;14.90;;;13.27;;
8044;SDS011;4065;48.754;9.982;2023-12-14T17:37:55;14.95;;;11.70;;
8044;SDS011;4065;48.754;9.982;2023-12-14T17:41:17;14.60;;;11.65;;
8044;SDS011;4065;48.754;9.982;2023-12-14T17:44:41;20.10;;;15.02;;
8044;SDS011;4065;48.754;9.982;2023-12-14T17:48:03;14.48;;;12.20;;
8044;SDS011;4065;48.754;9.982;2023-12-14T17:51:25;17.23;;;13.95;;
8044;SDS011;4065;48.754;9.982;2023-12-14T17:54:49;15.50;;;12.20;;
8044;SDS011;4065;48.754;9.982;2023-12-14T17:58:12;14.60;;;11.20;;
8044;SDS011;4065;48.754;9.982;2023-12-14T18:01:40;13.52;;;11.00;;
8044;SDS011;4065;48.754;9.982;2023-12-14T18:05:04;11.43;;;9.77;;
8044;SDS011;4065;48.754;9.982;2023-12-14T18:08:27;19.27;;;15.98;;
8044;SDS011;4065;48.754;9.982;2023-12-14T18:11:50;16.02;;;13.77;;
8044;SDS011;4065;48.754;9.982;2023-12-14T18:15:12;15.48;;;11.13;;
8044;SDS011;4065;48.754;9.982;2023-12-14T18:18:34;71.63;;;42.42;;
8044;SDS011;4065;48.754;9.982;2023-12-14T18:21:56;47.05;;;26.35;;
8044;SDS011;4065;48.754;9.982;2023-12-14T18:25:18;16.48;;;12.70;;
8044;SDS011;4065;48.754;9.982;2023-12-14T18:28:43;30.50;;;22.13;;
8044;SDS011;4065;48.754;9.982;2023-12-14T18:32:05;17.38;;;13.32;;
8044;SDS011;4065;48.754;9.982;2023-12-14T18:35:28;35.72;;;31.92;;
8044;SDS011;4065;48.754;9.982;2023-12-14T18:38:50;15.25;;;12.77;;
8044;SDS011;4065;48.754;9.982;2023-12-14T18:42:12;19.60;;;14.88;;
8044;SDS011;4065;48.754;9.982;2023-12-14T18:45:35;16.58;;;12.43;;
8044;SDS011;4065;48.754;9.982;2023-12-14T18:48:59;16.88;;;13.25;;
8044;SDS011;4065;48.754;9.982;2023-12-14T18:52:21;39.65;;;31.10;;
8044;SDS011;4065;48.754;9.982;2023-12-14T18:55:43;23.75;;;21.30;;
8044;SDS011;4065;48.754;9.982;2023-12-14T18:59:05;19.67;;;14.82;;
8044;SDS011;4065;48.754;9.982;2023-12-14T19:02:29;27.73;;;21.23;;
8044;SDS011;4065;48.754;9.982;2023-12-14T19:05:51;25.85;;;19.35;;
8044;SDS011;4065;48.754;9.982;2023-12-14T19:09:13;22.55;;;16.00;;
8044;SDS011;4065;48.754;9.982;2023-12-14T19:12:35;23.35;;;17.75;;
8044;SDS011;4065;48.754;9.982;2023-12-14T19:16:00;25.90;;;17.77;;
8044;SDS011;4065;48.754;9.982;2023-12-14T19:19:24;30.75;;;24.42;;
8044;SDS011;4065;48.754;9.982;2023-12-14T19:22:46;26.85;;;21.90;;
8044;SDS011;4065;48.754;9.982;2023-12-14T19:26:14;27.40;;;19.20;;
8044;SDS011;4065;48.754;9.982;2023-12-14T19:29:37;25.70;;;16.80;;
8044;SDS011;4065;48.754;9.982;2023-12-14T19:32:59;27.42;;;18.95;;
8044;SDS011;4065;48.754;9.982;2023-12-14T19:36:22;24.75;;;16.55;;
8044;SDS011;4065;48.754;9.982;2023-12-14T19:39:44;25.13;;;17.38;;
8044;SDS011;4065;48.754;9.982;2023-12-14T19:43:06;25.77;;;17.13;;
8044;SDS011;4065;48.754;9.982;2023-12-14T19:46:28;25.95;;;17.98;;
8044;SDS011;4065;48.754;9.982;2023-12-14T19:49:50;24.10;;;17.80;;
8044;SDS011;4065;48.754;9.982;2023-12-14T19:53:13;25.00;;;17.15;;
8044;SDS011;4065;48.754;9.982;2023-12-14T19:56:36;21.83;;;17.08;;
8044;SDS011;4065;48.754;9.982;2023-12-14T19:59:58;26.45;;;18.02;;
8044;SDS011;4065;48.754;9.982;2023-12-14T20:03:20;24.35;;;17.80;;
8044;SDS011;4065;48.754;9.982;2023-12-14T20:06:42;25.83;;;17.33;;
8044;SDS011;4065;48.754;9.982;2023-12-14T20:10:09;46.80;;;40.92;;
8044;SDS011;4065;48.754;9.982;2023-12-14T20:13:31;34.60;;;24.95;;
8044;SDS011;4065;48.754;9.982;2023-12-14T20:16:53;25.83;;;17.27;;
8044;SDS011;4065;48.754;9.982;2023-12-14T20:20:19;23.73;;;19.17;;
8044;SDS011;4065;48.754;9.982;2023-12-14T20:23:41;22.60;;;16.27;;
8044;SDS011;4065;48.754;9.982;2023-12-14T20:27:04;26.13;;;18.20;;
8044;SDS011;4065;48.754;9.982;2023-12-14T20:30:27;26.10;;;18.15;;
8044;SDS011;4065;48.754;9.982;2023-12-14T20:33:54;27.65;;;19.35;;
8044;SDS011;4065;48.754;9.982;2023-12-14T20:37:16;24.45;;;17.85;;